createdAt,value
2022-09-11T00:01:14.207Z,97500.78
2022-09-11T00:03:15.550Z,97502.56
2022-09-11T00:05:17.038Z,97496.59
2022-09-11T00:07:18.347Z,97496.66
2022-09-11T00:09:19.669Z,97500.06
2022-09-11T00:11:20.971Z,97492.44
2022-09-11T00:13:22.380Z,97497.59
2022-09-11T00:15:23.669Z,97499.31
2022-09-11T00:17:24.966Z,97499.31
2022-09-11T00:19:28.169Z,97500.22
2022-09-11T00:21:29.595Z,97495.09
2022-09-11T00:23:30.914Z,97495.97
2022-09-11T00:25:32.513Z,97499.44
2022-09-11T00:27:33.810Z,97490.97
2022-09-11T00:29:35.683Z,97500.34
2022-09-11T00:31:37.091Z,97500.34
2022-09-11T00:33:38.602Z,97497.78
2022-09-11T00:35:40.043Z,97497.94
2022-09-11T00:37:41.331Z,97492.94
2022-09-11T00:39:43.012Z,97490.47
2022-09-11T00:41:45.049Z,97492.19
2022-09-11T00:43:46.331Z,97491.31
2022-09-11T00:45:47.666Z,97489.63
2022-09-11T00:47:48.966Z,97494.75
2022-09-11T00:49:51.122Z,97493.88
2022-09-11T00:51:53.441Z,97487.06
2022-09-11T00:53:54.747Z,97493.06
2022-09-11T00:55:56.011Z,97488.88
2022-09-11T00:57:57.330Z,97488.03
2022-09-11T00:59:58.942Z,97483.84
2022-09-11T01:02:00.713Z,97484.72
2022-09-11T01:04:02.034Z,97483.09
2022-09-11T01:06:03.334Z,97483.91
2022-09-11T01:08:04.719Z,97483.00
2022-09-11T01:10:06.051Z,97483.84
2022-09-11T01:12:07.592Z,97483.84
2022-09-11T01:14:08.869Z,97481.28
2022-09-11T01:16:10.253Z,97487.28
2022-09-11T01:18:12.646Z,97481.41
2022-09-11T01:20:13.923Z,97483.97
2022-09-11T01:22:15.198Z,97484.03
2022-09-11T01:24:16.483Z,97486.59
2022-09-11T01:26:18.857Z,97484.06
2022-09-11T01:28:20.154Z,97484.13
2022-09-11T01:30:21.436Z,97473.91
2022-09-11T01:32:22.763Z,97478.09
2022-09-11T01:34:24.064Z,97490.66
2022-09-11T01:36:25.339Z,97486.34
2022-09-11T01:38:26.846Z,97487.97
2022-09-11T01:40:28.109Z,97486.31
2022-09-11T01:42:31.567Z,97482.03
2022-09-11T01:44:32.835Z,97485.47
2022-09-11T01:46:35.242Z,97481.22
2022-09-11T01:48:39.013Z,97482.13
2022-09-11T01:50:40.298Z,97487.28
2022-09-11T01:52:41.569Z,97485.63
2022-09-11T01:54:42.826Z,97488.19
2022-09-11T01:56:45.007Z,97483.97
2022-09-11T01:58:46.316Z,97478.00
2022-09-11T02:00:49.889Z,97482.25
2022-09-11T02:02:52.111Z,97487.28
2022-09-11T02:04:53.410Z,97483.09
2022-09-11T02:06:54.675Z,97488.19
2022-09-11T02:08:56.002Z,97484.72
2022-09-11T02:10:57.258Z,97480.56
2022-09-11T02:12:58.513Z,97480.56
2022-09-11T02:14:59.852Z,97478.84
2022-09-11T02:17:01.134Z,97477.84
2022-09-11T02:19:02.468Z,97485.22
2022-09-11T02:21:03.752Z,97484.34
2022-09-11T02:23:06.328Z,97481.88
2022-09-11T02:25:07.758Z,97477.53
2022-09-11T02:27:09.143Z,97483.56
2022-09-11T02:29:10.417Z,97486.06
2022-09-11T02:33:13.304Z,97491.13
2022-09-11T02:35:16.296Z,97482.56
2022-09-11T02:37:18.216Z,97486.81
2022-09-11T02:39:19.475Z,97489.44
2022-09-11T02:41:20.743Z,97490.28
2022-09-11T02:43:22.675Z,97483.50
2022-09-11T02:45:23.998Z,97488.63
2022-09-11T02:47:25.299Z,97492.00
2022-09-11T02:49:26.621Z,97484.34
2022-09-11T02:51:28.952Z,97488.69
2022-09-11T02:53:30.274Z,97485.28
2022-09-11T02:55:31.845Z,97478.47
2022-09-11T02:57:33.121Z,97487.09
2022-09-11T02:59:34.421Z,97483.59
2022-09-11T03:01:35.717Z,97483.56
2022-09-11T03:03:37.067Z,97491.16
2022-09-11T03:05:40.324Z,97485.19
2022-09-11T03:07:41.591Z,97484.28
2022-09-11T03:09:43.290Z,97486.06
2022-09-11T03:11:45.408Z,97488.69
2022-09-11T03:13:46.763Z,97489.56
2022-09-11T03:15:48.155Z,97489.56
2022-09-11T03:17:49.507Z,97493.81
2022-09-11T03:19:50.831Z,97490.50
2022-09-11T03:21:52.149Z,97491.16
2022-09-11T03:23:53.446Z,97486.81
2022-09-11T03:25:55.572Z,97483.47
2022-09-11T03:27:56.910Z,97483.47
2022-09-11T03:29:58.654Z,97490.28
2022-09-11T03:32:00.016Z,97486.13
2022-09-11T03:34:01.342Z,97489.56
2022-09-11T03:36:03.413Z,97487.06
2022-09-11T03:38:04.699Z,97488.81
2022-09-11T03:40:06.106Z,97495.72
2022-09-11T03:42:07.435Z,97491.50
2022-09-11T03:44:08.703Z,97490.69
2022-09-11T03:46:10.282Z,97490.69
2022-09-11T03:48:11.605Z,97497.56
2022-09-11T03:50:12.880Z,97499.28
2022-09-11T03:52:14.185Z,97498.13
2022-09-11T03:54:18.546Z,97492.94
2022-09-11T03:56:21.102Z,97497.19
2022-09-11T03:58:22.415Z,97495.50
2022-09-11T04:00:23.685Z,97498.13
2022-09-11T04:02:24.951Z,97499.88
2022-09-11T04:04:26.275Z,97497.31
2022-09-11T04:06:27.631Z,97491.38
2022-09-11T04:08:33.526Z,97497.19
2022-09-11T04:10:35.409Z,97496.34
2022-09-11T04:12:36.687Z,97496.44
2022-09-11T04:14:38.000Z,97493.06
2022-09-11T04:16:39.360Z,97492.28
2022-09-11T04:18:40.932Z,97498.34
2022-09-11T04:20:42.211Z,97491.59
2022-09-11T04:22:43.502Z,97503.59
2022-09-11T04:24:44.878Z,97501.94
2022-09-11T04:26:46.190Z,97503.72
2022-09-11T04:28:47.464Z,97507.81
2022-09-11T04:30:48.810Z,97504.28
2022-09-11T04:32:50.373Z,97501.59
2022-09-11T04:34:51.707Z,97501.47
2022-09-11T04:36:55.382Z,97500.69
2022-09-11T04:38:56.848Z,97503.25
2022-09-11T04:40:58.667Z,97497.28
2022-09-11T04:43:01.018Z,97503.19
2022-09-11T04:45:02.456Z,97504.88
2022-09-11T04:47:03.746Z,97499.78
2022-09-11T04:49:05.061Z,97510.00
2022-09-11T04:51:06.381Z,97511.81
2022-09-11T04:53:07.671Z,97514.34
2022-09-11T04:55:08.946Z,97518.63
2022-09-11T04:57:10.314Z,97519.41
2022-09-11T04:59:13.529Z,97518.63
2022-09-11T05:01:14.888Z,97512.63
2022-09-11T05:03:16.195Z,97508.50
2022-09-11T05:05:17.933Z,97511.22
2022-09-11T05:07:19.290Z,97516.38
2022-09-11T05:09:20.589Z,97513.81
2022-09-11T05:11:21.926Z,97513.88
2022-09-11T05:13:23.559Z,97524.19
2022-09-11T05:15:24.884Z,97515.69
2022-09-11T05:17:26.174Z,97516.56
2022-09-11T05:19:27.430Z,97414.22
2022-09-11T05:21:28.798Z,97519.22
2022-09-11T05:23:30.292Z,97522.66
2022-09-11T05:25:31.928Z,97526.94
2022-09-11T05:27:33.257Z,97526.13
2022-09-11T05:29:34.517Z,97529.56
2022-09-11T05:31:37.249Z,97535.50
2022-09-11T05:33:38.688Z,97532.16
2022-09-11T05:35:40.822Z,97529.63
2022-09-11T05:37:42.140Z,97532.97
2022-09-11T05:39:43.493Z,97527.88
2022-09-11T05:41:44.910Z,97381.81
2022-09-11T05:43:46.180Z,97529.66
2022-09-11T05:45:47.946Z,97527.09
2022-09-11T05:47:53.099Z,97533.91
2022-09-11T05:49:56.663Z,97537.84
2022-09-11T05:51:58.042Z,97549.59
2022-09-11T05:53:59.326Z,97545.31
2022-09-11T05:56:00.594Z,97550.44
2022-09-11T05:58:02.144Z,97556.41
2022-09-11T06:00:04.025Z,97557.25
2022-09-11T06:02:05.639Z,97556.38
2022-09-11T06:04:07.223Z,97554.69
2022-09-11T06:06:08.478Z,97562.41
2022-09-11T06:08:09.795Z,97560.75
2022-09-11T06:10:11.299Z,97560.75
2022-09-11T06:12:12.784Z,97570.91
2022-09-11T06:14:14.101Z,97574.38
2022-09-11T06:16:18.394Z,97564.97
2022-09-11T06:18:20.094Z,97570.97
2022-09-11T06:20:21.393Z,97571.94
2022-09-11T06:22:23.165Z,97577.94
2022-09-11T06:24:24.458Z,97577.94
2022-09-11T06:26:25.751Z,97584.78
2022-09-11T06:28:27.087Z,97576.13
2022-09-11T06:30:28.444Z,97587.19
2022-09-11T06:32:29.827Z,97583.78
2022-09-11T06:34:31.893Z,97580.19
2022-09-11T06:36:33.193Z,97579.25
2022-09-11T06:38:34.471Z,97575.78
2022-09-11T06:40:35.747Z,97586.94
2022-09-11T06:42:37.039Z,97591.28
2022-09-11T06:44:38.311Z,97591.38
2022-09-11T06:46:40.327Z,97590.53
2022-09-11T06:48:41.627Z,97588.03
2022-09-11T06:50:42.994Z,97605.09
2022-09-11T06:52:45.049Z,97595.72
2022-09-11T06:54:46.310Z,97590.53
2022-09-11T06:56:47.606Z,97596.47
2022-09-11T06:58:50.299Z,97598.94
2022-09-11T07:00:51.591Z,97600.66
2022-09-11T07:02:56.967Z,97593.09
2022-09-11T07:04:58.246Z,97601.66
2022-09-11T07:06:59.570Z,97593.25
2022-09-11T07:09:02.368Z,97600.38
2022-09-11T07:11:04.716Z,97602.66
2022-09-11T07:13:05.966Z,97603.88
2022-09-11T07:15:07.293Z,97601.66
2022-09-11T07:17:08.557Z,97606.16
2022-09-11T07:19:10.450Z,97602.16
2022-09-11T07:21:11.726Z,97599.78
2022-09-11T07:23:13.042Z,97604.97
2022-09-11T07:25:14.779Z,97599.94
2022-09-11T07:27:16.669Z,97601.66
2022-09-11T07:29:18.474Z,97598.28
2022-09-11T07:31:21.051Z,97599.19
2022-09-11T07:33:23.062Z,97596.63
2022-09-11T07:35:24.356Z,97601.75
2022-09-11T07:37:25.626Z,97602.34
2022-09-11T07:39:26.905Z,97604.66
2022-09-11T07:41:28.395Z,97611.72
2022-09-11T07:43:29.695Z,97609.06
2022-09-11T07:45:32.086Z,97611.72
2022-09-11T07:47:34.587Z,97613.66
2022-09-11T07:49:35.846Z,97603.16
2022-09-11T07:51:37.130Z,97615.31
2022-09-11T07:53:38.924Z,97609.72
2022-09-11T07:55:40.255Z,97616.78
2022-09-11T07:57:41.578Z,97614.75
2022-09-11T07:59:42.862Z,97611.13
2022-09-11T08:01:44.130Z,97623.00
2022-09-11T08:03:45.458Z,97616.97
2022-09-11T08:05:46.722Z,97616.97
2022-09-11T08:07:48.047Z,97613.97
2022-09-11T08:10:04.445Z,97615.00
2022-09-11T08:12:11.181Z,97626.84
2022-09-11T08:14:13.768Z,97627.72
2022-09-11T08:16:15.102Z,97640.22
2022-09-11T08:18:16.452Z,97632.56
2022-09-11T08:20:17.981Z,97641.47
2022-09-11T08:22:19.729Z,97648.03
2022-09-11T08:24:21.439Z,97644.50
2022-09-11T08:26:22.828Z,97646.66
2022-09-11T08:28:24.179Z,97652.75
2022-09-11T08:30:25.457Z,97653.78
2022-09-11T08:32:26.771Z,97653.09
2022-09-11T08:34:28.097Z,97657.09
2022-09-11T08:36:29.847Z,97660.50
2022-09-11T08:38:31.178Z,97661.13
2022-09-11T08:40:32.510Z,97653.34
2022-09-11T08:42:34.352Z,97661.94
2022-09-11T08:44:39.074Z,97660.78
2022-09-11T08:46:40.573Z,97664.47
2022-09-11T08:48:42.206Z,97665.44
2022-09-11T08:50:43.524Z,97669.88
2022-09-11T08:52:44.817Z,97659.81
2022-09-11T08:54:46.113Z,97537.91
2022-09-11T08:56:48.179Z,97670.19
2022-09-11T08:58:49.840Z,97671.91
2022-09-11T09:00:51.285Z,97676.25
2022-09-11T09:02:52.703Z,97673.72
2022-09-11T09:04:53.995Z,97674.56
2022-09-11T09:06:55.495Z,97680.53
2022-09-11T09:08:56.772Z,97679.72
2022-09-11T09:10:58.274Z,97676.38
2022-09-11T09:12:59.557Z,97677.31
2022-09-11T09:15:00.815Z,97681.53
2022-09-11T09:17:02.128Z,97685.88
2022-09-11T09:19:03.539Z,97681.56
2022-09-11T09:21:04.798Z,97683.34
2022-09-11T09:23:06.132Z,97690.25
2022-09-11T09:25:07.409Z,97697.06
2022-09-11T09:27:08.764Z,97706.44
2022-09-11T09:29:10.042Z,97705.63
2022-09-11T09:31:11.369Z,97709.06
2022-09-11T09:33:13.355Z,97715.91
2022-09-11T09:35:15.396Z,97592.19
2022-09-11T09:37:17.538Z,97711.78
2022-09-11T09:39:18.825Z,97714.34
2022-09-11T09:41:20.099Z,97719.44
2022-09-11T09:43:21.373Z,97720.28
2022-09-11T09:45:24.486Z,97725.44
2022-09-11T09:47:26.747Z,97724.66
2022-09-11T09:49:28.043Z,97723.03
2022-09-11T09:51:29.322Z,97733.22
2022-09-11T09:53:30.667Z,97730.75
2022-09-11T09:55:32.000Z,97734.09
2022-09-11T09:57:33.279Z,97740.94
2022-09-11T09:59:34.835Z,97739.16
2022-09-11T10:01:38.076Z,97740.00
2022-09-11T10:03:39.459Z,97735.72
2022-09-11T10:05:40.741Z,97735.63
2022-09-11T10:07:42.000Z,97740.63
2022-09-11T10:09:43.315Z,97738.16
2022-09-11T10:11:46.720Z,97741.59
2022-09-11T10:13:47.995Z,97745.88
2022-09-11T10:15:49.382Z,97745.16
2022-09-11T10:17:51.591Z,97744.31
2022-09-11T10:19:52.895Z,97745.19
2022-09-11T10:21:54.190Z,97753.78
2022-09-11T10:23:55.622Z,97752.94
2022-09-11T10:25:56.984Z,97753.78
2022-09-11T10:27:59.133Z,97747.72
2022-09-11T10:30:00.531Z,97749.34
2022-09-11T10:32:02.543Z,97744.19
2022-09-11T10:34:03.882Z,97747.59
2022-09-11T10:36:05.456Z,97760.38
2022-09-11T10:38:06.754Z,97752.75
2022-09-11T10:40:08.844Z,97753.63
2022-09-11T10:42:10.607Z,97759.59
2022-09-11T10:44:11.882Z,97773.28
2022-09-11T10:46:13.574Z,97757.97
2022-09-11T10:48:14.930Z,97758.88
2022-09-11T10:50:16.244Z,97762.31
2022-09-11T10:52:18.816Z,97760.63
2022-09-11T10:54:20.154Z,97753.88
2022-09-11T10:56:21.435Z,97760.75
2022-09-11T10:58:23.307Z,97764.16
2022-09-11T11:00:24.584Z,97772.72
2022-09-11T11:02:25.884Z,97763.38
2022-09-11T11:04:27.246Z,97768.59
2022-09-11T11:06:28.577Z,97767.81
2022-09-11T11:08:30.135Z,97777.22
2022-09-11T11:10:32.454Z,97773.91
2022-09-11T11:12:33.777Z,97780.78
2022-09-11T11:14:35.267Z,97776.59
2022-09-11T11:16:36.606Z,97783.44
2022-09-11T11:18:37.880Z,97784.34
2022-09-11T11:20:39.169Z,97783.53
2022-09-11T11:22:40.919Z,97792.84
2022-09-11T11:24:42.195Z,97775.84
2022-09-11T11:26:43.670Z,97792.91
2022-09-11T11:28:44.947Z,97788.66
2022-09-11T11:30:46.321Z,97796.31
2022-09-11T11:32:48.245Z,97792.91
2022-09-11T11:34:51.285Z,97797.97
2022-09-11T11:36:52.571Z,97803.91
2022-09-11T11:39:00.243Z,97799.66
2022-09-11T11:41:03.142Z,97803.97
2022-09-11T11:43:04.491Z,97803.13
2022-09-11T11:45:05.758Z,97805.75
2022-09-11T11:47:07.050Z,97809.09
2022-09-11T11:49:08.321Z,97812.44
2022-09-11T11:51:09.734Z,97807.38
2022-09-11T11:53:12.328Z,97803.16
2022-09-11T11:55:13.593Z,97810.88
2022-09-11T11:57:16.795Z,97810.88
2022-09-11T11:59:18.182Z,97816.81
2022-09-11T12:01:19.507Z,97822.78
2022-09-11T12:03:21.948Z,97821.09
2022-09-11T12:05:26.372Z,97823.66
2022-09-11T12:07:27.664Z,97823.72
2022-09-11T12:09:33.800Z,97825.41
2022-09-11T12:11:35.375Z,97829.03
2022-09-11T12:13:36.687Z,97828.41
2022-09-11T12:15:38.500Z,97829.53
2022-09-11T12:17:43.927Z,97837.22
2022-09-11T12:19:47.872Z,97837.13
2022-09-11T12:21:49.178Z,97839.69
2022-09-11T12:23:51.116Z,97834.50
2022-09-11T12:25:53.668Z,97832.69
2022-09-11T12:27:55.842Z,97834.13
2022-09-11T12:29:57.168Z,97830.19
2022-09-11T12:31:58.486Z,97840.97
2022-09-11T12:33:59.816Z,97834.28
2022-09-11T12:36:01.119Z,97846.84
2022-09-11T12:38:02.661Z,97848.91
2022-09-11T12:40:03.998Z,97842.00
2022-09-11T12:42:06.412Z,97835.22
2022-09-11T12:44:08.014Z,97830.00
2022-09-11T12:46:09.333Z,97832.81
2022-09-11T12:48:10.714Z,97829.75
2022-09-11T12:50:12.210Z,97825.97
2022-09-11T12:52:13.991Z,97838.44
2022-09-11T12:54:15.331Z,97842.78
2022-09-11T12:56:16.617Z,97832.72
2022-09-11T12:58:18.878Z,97824.50
2022-09-11T13:00:20.316Z,97824.88
2022-09-11T13:02:21.614Z,97828.88
2022-09-11T13:04:22.998Z,97833.13
2022-09-11T13:06:24.295Z,97839.84
2022-09-11T13:08:26.250Z,97840.91
2022-09-11T13:10:28.799Z,97845.66
2022-09-11T13:12:30.109Z,97845.97
2022-09-11T13:14:31.439Z,97850.38
2022-09-11T13:16:34.930Z,97846.16
2022-09-11T13:18:36.264Z,97840.34
2022-09-11T13:20:38.006Z,97834.53
2022-09-11T13:22:39.340Z,97834.63
2022-09-11T13:24:40.622Z,97835.53
2022-09-11T13:26:42.122Z,97838.09
2022-09-11T13:28:43.433Z,97840.69
2022-09-11T13:30:44.799Z,97836.50
2022-09-11T13:32:47.306Z,97835.69
2022-09-11T13:34:48.605Z,97845.94
2022-09-11T13:36:54.596Z,97838.25
2022-09-11T13:38:57.703Z,97841.69
2022-09-11T13:40:59.067Z,97841.69
2022-09-11T13:43:00.357Z,97833.94
2022-09-11T13:45:01.936Z,97831.38
2022-09-11T13:47:06.388Z,97830.97
2022-09-11T13:49:07.675Z,97823.66
2022-09-11T13:51:08.946Z,97831.84
2022-09-11T13:53:10.234Z,97828.22
2022-09-11T13:55:11.567Z,97829.69
2022-09-11T13:57:13.027Z,97824.50
2022-09-11T13:59:15.470Z,97814.28
2022-09-11T14:01:16.927Z,97823.72
2022-09-11T14:03:18.449Z,97818.78
2022-09-11T14:07:24.115Z,97823.81
2022-09-11T14:09:25.414Z,97817.00
2022-09-11T14:11:27.134Z,97812.66
2022-09-11T14:13:28.407Z,97814.63
2022-09-11T14:15:29.982Z,97813.94
2022-09-11T14:17:31.295Z,97818.94
2022-09-11T14:19:32.635Z,97815.53
2022-09-11T14:21:33.903Z,97812.28
2022-09-11T14:23:35.214Z,97809.94
2022-09-11T14:25:36.530Z,97815.97
2022-09-11T14:27:38.021Z,97807.53
2022-09-11T14:29:39.298Z,97814.56
2022-09-11T14:31:40.603Z,97819.78
2022-09-11T14:33:42.083Z,97813.81
2022-09-11T14:35:43.411Z,97818.63
2022-09-11T14:37:45.712Z,97820.31
2022-09-11T14:39:47.420Z,97815.28
2022-09-11T14:41:48.739Z,97811.78
2022-09-11T14:43:50.347Z,97807.50
2022-09-11T14:45:52.470Z,97802.38
2022-09-11T14:47:53.734Z,97799.84
2022-09-11T14:49:54.988Z,97799.84
2022-09-11T14:51:58.242Z,97793.97
2022-09-11T14:53:59.535Z,97805.03
2022-09-11T14:56:00.830Z,97796.50
2022-09-11T14:58:03.280Z,97789.06
2022-09-11T15:00:04.548Z,97787.38
2022-09-11T15:02:05.840Z,97797.16
2022-09-11T15:04:07.124Z,97795.50
2022-09-11T15:06:08.461Z,97794.78
2022-09-11T15:08:09.739Z,97800.88
2022-09-11T15:10:11.035Z,97790.22
2022-09-11T15:12:12.302Z,97787.88
2022-09-11T15:14:23.677Z,97795.09
2022-09-11T15:16:29.062Z,97791.72
2022-09-11T15:18:30.330Z,97782.94
2022-09-11T15:20:32.086Z,97786.41
2022-09-11T15:22:33.374Z,97785.78
2022-09-11T15:24:35.063Z,97784.13
2022-09-11T15:26:37.341Z,97791.41
2022-09-11T15:28:39.039Z,97793.72
2022-09-11T15:30:40.527Z,97801.06
2022-09-11T15:32:41.823Z,97788.28
2022-09-11T15:34:45.307Z,97820.66
2022-09-11T15:36:46.564Z,97807.38
2022-09-11T15:38:48.035Z,97808.88
2022-09-11T15:40:49.296Z,97815.19
2022-09-11T15:42:50.698Z,97818.25
2022-09-11T15:44:53.030Z,97814.09
2022-09-11T15:46:54.298Z,97807.72
2022-09-11T15:48:55.583Z,97814.91
2022-09-11T15:50:56.863Z,97811.38
2022-09-11T15:52:58.135Z,97815.75
2022-09-11T15:54:59.470Z,97811.28
2022-09-11T15:57:00.785Z,97807.41
2022-09-11T15:59:02.063Z,97809.28
2022-09-11T16:01:03.598Z,97802.69
2022-09-11T16:03:04.911Z,97801.25
2022-09-11T16:05:06.188Z,97792.97
2022-09-11T16:07:07.523Z,97800.56
2022-09-11T16:09:08.839Z,97794.16
2022-09-11T16:11:11.411Z,97801.63
2022-09-11T16:13:13.186Z,97800.72
2022-09-11T16:15:14.506Z,97798.59
2022-09-11T16:17:19.393Z,97789.81
2022-09-11T16:19:20.660Z,97795.50
2022-09-11T16:21:23.217Z,97800.41
2022-09-11T16:23:25.630Z,97807.09
2022-09-11T16:25:27.991Z,97813.03
2022-09-11T16:27:29.331Z,97813.38
2022-09-11T16:29:44.275Z,97805.88
2022-09-11T16:31:51.938Z,97803.72
2022-09-11T16:33:56.914Z,97806.03
2022-09-11T16:35:58.491Z,97805.28
2022-09-11T16:38:00.763Z,97813.81
2022-09-11T16:40:02.660Z,97806.50
2022-09-11T16:42:04.183Z,97807.28
2022-09-11T16:44:05.480Z,97808.91
2022-09-11T16:46:06.878Z,97808.78
2022-09-11T16:48:09.758Z,97817.16
2022-09-11T16:50:11.078Z,97816.22
2022-09-11T16:52:12.475Z,97814.66
2022-09-11T16:54:13.803Z,97810.09
2022-09-11T16:56:15.138Z,97810.41
2022-09-11T16:58:16.549Z,97806.03
2022-09-11T17:00:17.833Z,97809.63
2022-09-11T17:02:19.157Z,97806.38
2022-09-11T17:04:20.458Z,97806.66
2022-09-11T17:06:21.782Z,97801.72
2022-09-11T17:08:23.107Z,97798.31
2022-09-11T17:10:24.442Z,97804.59
2022-09-11T17:12:25.754Z,97809.31
2022-09-11T17:14:29.421Z,97817.63
2022-09-11T17:16:32.246Z,97811.25
2022-09-11T17:18:33.614Z,97816.16
2022-09-11T17:20:34.883Z,97803.63
2022-09-11T17:22:37.422Z,97816.63
2022-09-11T17:24:39.620Z,97811.13
2022-09-11T17:26:40.994Z,97811.72
2022-09-11T17:28:42.375Z,97811.06
2022-09-11T17:30:44.403Z,97816.03
2022-09-11T17:32:45.686Z,97816.91
2022-09-11T17:34:47.456Z,97820.22
2022-09-11T17:36:49.272Z,97815.31
2022-09-11T17:38:50.615Z,97818.69
2022-09-11T17:40:51.879Z,97813.97
2022-09-11T17:42:53.138Z,97822.31
2022-09-11T17:44:54.419Z,97820.53
2022-09-11T17:47:00.051Z,97811.97
2022-09-11T17:49:02.030Z,97827.69
2022-09-11T17:51:03.359Z,97838.78
2022-09-11T17:53:06.011Z,97826.91
2022-09-11T17:55:07.316Z,97825.00
2022-09-11T17:57:08.620Z,97833.53
2022-09-11T17:59:10.855Z,97832.19
2022-09-11T18:01:16.590Z,97838.78
2022-09-11T18:03:22.648Z,97842.84
2022-09-11T18:05:23.984Z,97840.16
2022-09-11T18:07:25.306Z,97841.22
2022-09-11T18:09:26.635Z,97843.06
2022-09-11T18:11:27.939Z,97848.19
2022-09-11T18:13:29.212Z,97838.75
2022-09-11T18:15:30.546Z,97837.91
2022-09-11T18:17:32.179Z,97848.19
2022-09-11T18:19:33.479Z,97847.13
2022-09-11T18:21:38.263Z,97848.56
2022-09-11T18:23:39.876Z,97851.56
2022-09-11T18:25:41.192Z,97853.97
2022-09-11T18:27:44.053Z,97848.41
2022-09-11T18:29:45.448Z,97846.53
2022-09-11T18:31:46.795Z,97851.84
2022-09-11T18:33:48.137Z,97855.94
2022-09-11T18:35:50.062Z,97860.91
2022-09-11T18:37:51.355Z,97858.16
2022-09-11T18:39:54.027Z,97864.72
2022-09-11T18:41:55.435Z,97860.63
2022-09-11T18:43:56.792Z,97862.31
2022-09-11T18:45:59.918Z,97861.47
2022-09-11T18:48:01.283Z,97866.53
2022-09-11T18:50:04.110Z,97871.00
2022-09-11T18:52:05.643Z,97867.69
2022-09-11T18:54:08.918Z,97870.00
2022-09-11T18:56:11.518Z,97862.66
2022-09-11T18:58:13.034Z,97872.19
2022-09-11T19:00:15.723Z,97867.94
2022-09-11T19:02:17.504Z,97867.88
2022-09-11T19:04:20.246Z,97871.09
2022-09-11T19:06:21.567Z,97874.69
2022-09-11T19:08:22.885Z,97875.53
2022-09-11T19:10:24.172Z,97870.00
2022-09-11T19:12:26.199Z,97876.50
2022-09-11T19:14:27.897Z,97879.75
2022-09-11T19:16:29.183Z,97880.66
2022-09-11T19:18:31.526Z,97883.22
2022-09-11T19:20:33.058Z,97883.06
2022-09-11T19:22:35.461Z,97877.06
2022-09-11T19:24:36.777Z,97874.59
2022-09-11T19:26:41.388Z,97883.13
2022-09-11T19:28:42.734Z,97886.56
2022-09-11T19:30:44.136Z,97888.25
2022-09-11T19:32:45.404Z,97888.34
2022-09-11T19:34:54.722Z,97889.91
2022-09-11T19:36:56.058Z,97880.25
2022-09-11T19:39:00.473Z,97888.69
2022-09-11T19:41:02.199Z,97881.84
2022-09-11T19:43:03.794Z,97884.44
2022-09-11T19:45:05.900Z,97889.47
2022-09-11T19:47:07.207Z,97890.31
2022-09-11T19:49:08.941Z,97889.44
2022-09-11T19:51:10.220Z,97891.19
2022-09-11T19:53:11.571Z,97747.97
2022-09-11T19:55:12.858Z,97898.63
2022-09-11T19:57:14.190Z,97898.59
2022-09-11T19:59:15.615Z,97892.72
2022-09-11T20:01:16.889Z,97897.75
2022-09-11T20:03:18.183Z,97898.59
2022-09-11T20:05:19.503Z,97898.59
2022-09-11T20:07:21.085Z,97896.91
2022-09-11T20:09:37.748Z,97893.41
2022-09-11T20:11:39.083Z,97904.56
2022-09-11T20:13:40.387Z,97898.59
2022-09-11T20:15:41.893Z,97892.56
2022-09-11T20:17:44.827Z,97898.28
2022-09-11T20:19:46.102Z,97901.75
2022-09-11T20:21:47.415Z,97898.19
2022-09-11T20:23:48.746Z,97898.28
2022-09-11T20:25:50.240Z,97893.03
2022-09-11T20:27:51.843Z,97900.63
2022-09-11T20:29:53.120Z,97900.75
2022-09-11T20:31:55.890Z,97902.53
2022-09-11T20:33:57.247Z,97899.09
2022-09-11T20:36:00.403Z,97897.19
2022-09-11T20:38:01.886Z,97903.50
2022-09-11T20:40:03.831Z,97900.47
2022-09-11T20:42:05.127Z,97909.88
2022-09-11T20:44:06.413Z,97914.66
2022-09-11T20:46:07.722Z,97911.47
2022-09-11T20:48:09.005Z,97912.00
2022-09-11T20:50:10.326Z,97910.19
2022-09-11T20:52:11.677Z,97914.47
2022-09-11T20:54:12.966Z,97909.44
2022-09-11T20:56:14.279Z,97911.22
2022-09-11T20:58:15.784Z,97910.41
2022-09-11T21:00:17.056Z,97907.88
2022-09-11T21:02:19.120Z,97903.69
2022-09-11T21:04:20.454Z,97908.88
2022-09-11T21:06:25.531Z,97907.19
2022-09-11T21:08:27.499Z,97911.47
2022-09-11T21:10:28.821Z,97914.06
2022-09-11T21:12:30.099Z,97906.41
2022-09-11T21:14:31.412Z,97909.00
2022-09-11T21:16:32.814Z,97898.88
2022-09-11T21:18:34.118Z,97907.41
2022-09-11T21:20:35.459Z,97898.03
2022-09-11T21:22:36.738Z,97895.53
2022-09-11T21:24:38.042Z,97893.00
2022-09-11T21:26:39.366Z,97900.72
2022-09-11T21:28:40.690Z,97897.34
2022-09-11T21:30:41.973Z,97903.34
2022-09-11T21:32:43.284Z,97895.31
2022-09-11T21:34:44.559Z,97907.72
2022-09-11T21:36:45.826Z,97904.31
2022-09-11T21:38:47.163Z,97897.53
2022-09-11T21:40:48.469Z,97899.28
2022-09-11T21:42:49.743Z,97896.75
2022-09-11T21:44:51.051Z,97906.13
2022-09-11T21:46:52.414Z,97905.28
2022-09-11T21:48:53.773Z,97898.53
2022-09-11T21:50:55.039Z,97902.81
2022-09-11T21:52:56.319Z,97906.25
2022-09-11T21:54:58.671Z,97907.91
2022-09-11T21:57:00.003Z,97903.66
2022-09-11T21:59:01.350Z,97907.00
2022-09-11T22:01:05.833Z,97896.88
2022-09-11T22:03:07.343Z,97907.06
2022-09-11T22:05:08.938Z,97904.56
2022-09-11T22:07:12.264Z,97894.16
2022-09-11T22:09:13.573Z,97900.81
2022-09-11T22:11:14.872Z,97903.44
2022-09-11T22:13:16.199Z,97903.38
2022-09-11T22:15:17.495Z,97902.53
2022-09-11T22:17:18.762Z,97900.88
2022-09-11T22:19:20.068Z,97906.00
2022-09-11T22:21:21.331Z,97895.78
2022-09-11T22:23:22.614Z,97894.97
2022-09-11T22:25:23.932Z,97893.28
2022-09-11T22:27:25.214Z,97896.72
2022-09-11T22:29:26.498Z,97900.16
2022-09-11T22:31:28.884Z,97901.84
2022-09-11T22:33:30.219Z,97907.00
2022-09-11T22:35:31.503Z,97904.50
2022-09-11T22:37:32.801Z,97904.94
2022-09-11T22:39:34.116Z,97898.91
2022-09-11T22:41:35.741Z,97901.44
2022-09-11T22:43:37.157Z,97892.94
2022-09-11T22:45:38.593Z,97891.25
2022-09-11T22:47:39.902Z,97898.06
2022-09-11T22:49:41.170Z,97893.78
2022-09-11T22:51:42.447Z,97897.25
2022-09-11T22:53:43.990Z,97897.28
2022-09-11T22:55:45.410Z,97895.63
2022-09-11T22:57:46.679Z,97897.31
2022-09-11T22:59:48.148Z,97891.41
2022-09-11T23:01:49.460Z,97893.13
2022-09-11T23:03:50.866Z,97893.97
2022-09-11T23:06:10.875Z,97893.13
2022-09-11T23:08:12.141Z,97894.00
2022-09-11T23:10:13.570Z,97876.09
2022-09-11T23:12:14.860Z,97882.94
2022-09-11T23:14:16.178Z,97883.78
2022-09-11T23:16:17.505Z,97889.81
2022-09-11T23:18:18.868Z,97894.06
2022-09-11T23:20:20.186Z,97886.41
2022-09-11T23:22:21.666Z,97885.56
2022-09-11T23:24:23.033Z,97887.31
2022-09-11T23:26:24.333Z,97880.50
2022-09-11T23:28:25.670Z,97883.13
2022-09-11T23:30:27.004Z,97880.56
2022-09-11T23:32:28.271Z,97877.16
2022-09-11T23:34:29.795Z,97873.75
2022-09-11T23:36:31.079Z,97884.00
2022-09-11T23:38:32.415Z,97881.44
2022-09-11T23:40:33.685Z,97883.13
2022-09-11T23:42:34.941Z,97883.06
2022-09-11T23:44:36.254Z,97883.84
2022-09-11T23:46:38.236Z,97888.09
2022-09-11T23:48:39.490Z,97889.81
2022-09-11T23:50:41.817Z,97890.66
2022-09-11T23:52:43.115Z,97893.94
2022-09-11T23:54:44.407Z,97891.25